Time;durP1;ratioP1;P1;durP2;ratioP2;P2;SDS_P1;SDS_P2;PMS_P1;PMS_P2;Temp;Humidity;BMP_temperature;BMP_pressure;BME280_temperature;BME280_humidity;BME280_pressure;Samples;Min_cycle;Max_cycle;Signal;HPM_P1;HPM_P2
2021/10/03 00:00:00;;;;;;;30.00;15.80;;;10.60;99.90;;;;;;5097017;28;20304;-93
2021/10/03 00:02:30;;;;;;;27.07;15.13;;;10.50;99.90;;;;;;5088023;28;20246;-93
2021/10/03 00:04:57;;;;;;;36.77;16.07;;;10.50;99.90;;;;;;5096619;28;20230;-88
2021/10/03 00:07:24;;;;;;;36.17;17.33;;;10.50;99.90;;;;;;5082347;28;20175;-92
2021/10/03 00:09:51;;;;;;;33.33;17.60;;;10.50;99.90;;;;;;5092502;28;20232;-93
2021/10/03 00:12:18;;;;;;;30.57;16.40;;;10.50;99.90;;;;;;5057874;28;20210;-93
2021/10/03 00:14:44;;;;;;;32.77;15.90;;;10.50;99.90;;;;;;5073909;28;20269;-93
2021/10/03 00:17:10;;;;;;;30.53;15.80;;;10.40;99.90;;;;;;5085199;28;20243;-92
2021/10/03 00:19:37;;;;;;;30.40;15.90;;;10.40;99.90;;;;;;5091847;28;20254;-93
2021/10/03 00:22:04;;;;;;;32.20;15.13;;;10.40;99.90;;;;;;5090721;28;20178;-93
2021/10/03 00:24:30;;;;;;;33.47;16.50;;;10.40;99.90;;;;;;5091256;28;20545;-93
2021/10/03 00:26:57;;;;;;;42.53;17.60;;;10.30;99.90;;;;;;5091890;28;20522;-93
2021/10/03 00:29:24;;;;;;;36.80;17.05;;;10.30;99.90;;;;;;5076923;28;20191;-93
2021/10/03 00:31:50;;;;;;;29.93;16.00;;;10.30;99.90;;;;;;5079686;28;20232;-93
2021/10/03 00:34:16;;;;;;;32.75;15.48;;;10.30;99.90;;;;;;5061726;28;20658;-93
2021/10/03 00:36:42;;;;;;;31.08;15.80;;;10.30;99.90;;;;;;5062234;28;20207;-93
2021/10/03 00:39:08;;;;;;;30.10;16.10;;;10.30;99.90;;;;;;5061101;28;20187;-94
2021/10/03 00:41:33;;;;;;;34.67;14.23;;;10.30;99.90;;;;;;5079308;28;20179;-93
2021/10/03 00:43:59;;;;;;;24.70;14.90;;;10.20;99.90;;;;;;5078020;28;20224;-88
2021/10/03 00:46:25;;;;;;;29.77;15.47;;;10.20;99.90;;;;;;5078587;28;20180;-92
2021/10/03 00:48:51;;;;;;;28.40;15.20;;;10.20;99.90;;;;;;5079123;28;20175;-94
2021/10/03 00:51:17;;;;;;;33.33;15.95;;;10.20;99.90;;;;;;5077190;28;20578;-94
2021/10/03 00:53:43;;;;;;;36.77;15.97;;;10.20;99.90;;;;;;5078053;28;20612;-93
2021/10/03 00:56:12;;;;;;;28.67;14.77;;;10.10;99.90;;;;;;5079141;28;20209;-93
2021/10/03 00:58:38;;;;;;;35.60;15.07;;;10.10;99.90;;;;;;5063547;28;20185;-94
2021/10/03 01:01:05;;;;;;;31.53;15.37;;;10.10;99.90;;;;;;5060993;28;20183;-93
2021/10/03 01:03:31;;;;;;;28.10;15.53;;;10.10;99.90;;;;;;5078627;28;20244;-94
2021/10/03 01:05:57;;;;;;;30.87;15.80;;;10.10;99.90;;;;;;5078711;28;20644;-93
2021/10/03 01:08:22;;;;;;;30.93;15.53;;;10.10;99.90;;;;;;5061916;28;20218;-94
2021/10/03 01:10:48;;;;;;;28.67;15.30;;;10.00;99.90;;;;;;5064526;28;20179;-94
2021/10/03 01:13:16;;;;;;;25.03;14.77;;;10.00;99.90;;;;;;5080603;28;20184;-94
2021/10/03 01:15:44;;;;;;;29.57;14.83;;;10.00;99.90;;;;;;5079645;28;20223;-94
2021/10/03 01:18:11;;;;;;;30.63;15.10;;;10.60;99.90;;;;;;5044401;28;20183;-93
2021/10/03 01:20:37;;;;;;;37.73;16.50;;;9.90;99.90;;;;;;5042416;28;20180;-94
2021/10/03 01:23:03;;;;;;;29.63;14.77;;;9.90;99.90;;;;;;5043220;28;20195;-92
2021/10/03 01:25:34;;;;;;;32.00;14.87;;;9.90;99.90;;;;;;5071369;28;20263;-93
2021/10/03 01:28:01;;;;;;;29.50;15.43;;;9.80;99.90;;;;;;5071331;28;20228;-93
2021/10/03 01:30:26;;;;;;;29.87;14.93;;;9.80;99.90;;;;;;5052064;28;20233;-93
2021/10/03 01:32:52;;;;;;;26.23;13.63;;;9.80;99.90;;;;;;5047615;28;20207;-94
2021/10/03 01:35:19;;;;;;;30.90;15.10;;;9.60;99.90;;;;;;5060067;28;20176;-94
2021/10/03 01:37:46;;;;;;;30.20;14.97;;;9.60;99.90;;;;;;5042152;28;20578;-94
2021/10/03 01:40:12;;;;;;;26.20;14.50;;;9.50;99.90;;;;;;5058079;28;20172;-95
2021/10/03 01:42:40;;;;;;;27.80;14.00;;;9.40;99.90;;;;;;5007441;28;20258;-95
2021/10/03 01:45:09;;;;;;;28.03;15.63;;;9.30;99.90;;;;;;5040420;28;20204;-89
2021/10/03 01:47:55;;;;;;;27.80;13.93;;;9.20;99.90;;;;;;5058643;28;20186;-94
2021/10/03 01:50:20;;;;;;;27.07;15.23;;;9.20;99.90;;;;;;5056469;28;20180;-94
2021/10/03 01:52:46;;;;;;;27.73;14.37;;;9.10;99.90;;;;;;5039518;28;20199;-94
2021/10/03 01:55:15;;;;;;;30.50;15.13;;;9.10;99.90;;;;;;5039573;28;20183;-94
2021/10/03 01:57:41;;;;;;;29.97;15.17;;;9.10;99.90;;;;;;5056818;28;20200;-94
2021/10/03 02:00:07;;;;;;;31.80;16.83;;;9.10;99.90;;;;;;5023497;28;20655;-91
2021/10/03 02:02:33;;;;;;;30.97;16.87;;;9.00;99.90;;;;;;5039227;28;20176;-94
2021/10/03 02:04:59;;;;;;;32.07;16.50;;;9.00;99.90;;;;;;5057058;28;20171;-94
2021/10/03 02:07:24;;;;;;;29.60;15.90;;;8.90;99.90;;;;;;5022270;28;20183;-94
2021/10/03 02:09:50;;;;;;;30.93;15.80;;;8.90;99.90;;;;;;5005820;28;20234;-95
2021/10/03 02:12:15;;;;;;;27.80;16.53;;;8.80;99.90;;;;;;5038135;28;20234;-95
2021/10/03 02:14:41;;;;;;;29.47;15.77;;;8.80;99.90;;;;;;5037240;28;20176;-94
2021/10/03 02:17:07;;;;;;;28.50;16.17;;;8.80;99.90;;;;;;5062996;28;20738;-94
2021/10/03 02:19:33;;;;;;;32.77;16.77;;;8.80;99.90;;;;;;5056717;28;20183;-93
2021/10/03 02:22:00;;;;;;;33.87;16.57;;;8.70;99.90;;;;;;5074700;28;20167;-93
2021/10/03 02:24:26;;;;;;;30.63;16.33;;;8.70;99.90;;;;;;5073357;28;20183;-95
2021/10/03 02:26:52;;;;;;;34.63;16.17;;;8.60;99.90;;;;;;5074638;28;20190;-94
2021/10/03 02:29:18;;;;;;;30.23;15.30;;;8.50;99.90;;;;;;5073266;28;20624;-94
2021/10/03 02:31:43;;;;;;;33.20;15.40;;;8.50;99.90;;;;;;5073737;28;20183;-95
2021/10/03 02:34:09;;;;;;;27.40;15.03;;;8.40;99.90;;;;;;5073859;28;20269;-95
2021/10/03 02:36:35;;;;;;;26.93;14.53;;;8.30;99.90;;;;;;5073327;28;20206;-94
2021/10/03 02:39:01;;;;;;;32.67;16.63;;;8.30;99.90;;;;;;5073904;28;20175;-95
2021/10/03 02:41:27;;;;;;;34.10;17.43;;;8.20;99.90;;;;;;5073238;28;20229;-95
2021/10/03 02:43:56;;;;;;;31.33;16.40;;;8.20;99.90;;;;;;5074811;28;20179;-94
2021/10/03 02:46:25;;;;;;;31.17;16.63;;;8.20;99.90;;;;;;5074715;28;20183;-95
2021/10/03 02:48:52;;;;;;;33.03;16.07;;;8.10;99.90;;;;;;5073259;28;20214;-94
2021/10/03 02:51:26;;;;;;;34.47;15.97;;;8.10;99.90;;;;;;5073132;28;20179;-95
2021/10/03 02:53:54;;;;;;;30.67;15.67;;;8.10;99.90;;;;;;5074694;28;20171;-95
2021/10/03 02:56:21;;;;;;;29.73;15.67;;;8.00;99.90;;;;;;5056759;28;20218;-94
2021/10/03 02:58:47;;;;;;;32.40;15.97;;;8.00;99.90;;;;;;5073626;28;20639;-95
2021/10/03 03:01:13;;;;;;;29.23;16.07;;;8.00;99.90;;;;;;5073393;28;20180;-94
2021/10/03 03:03:39;;;;;;;28.33;15.53;;;8.00;99.90;;;;;;5073483;28;20175;-96
2021/10/03 03:06:08;;;;;;;34.43;16.23;;;8.00;99.90;;;;;;5040234;28;20275;-95
2021/10/03 03:08:34;;;;;;;30.33;15.60;;;8.00;99.90;;;;;;5073263;28;20596;-95
2021/10/03 03:11:01;;;;;;;27.63;15.13;;;7.90;99.90;;;;;;5073588;28;20648;-95
2021/10/03 03:13:27;;;;;;;28.20;15.60;;;7.90;99.90;;;;;;5073952;28;20225;-94
2021/10/03 03:15:54;;;;;;;25.70;15.60;;;7.90;99.90;;;;;;5072750;28;20254;-95
2021/10/03 03:18:19;;;;;;;30.70;15.90;;;7.90;99.90;;;;;;5073113;28;20228;-94
2021/10/03 03:20:45;;;;;;;28.17;15.17;;;7.80;99.90;;;;;;5072823;28;20632;-93
2021/10/03 03:23:11;;;;;;;29.53;15.37;;;7.80;99.90;;;;;;5072796;28;20532;-93
2021/10/03 03:25:37;;;;;;;29.10;15.63;;;7.80;99.90;;;;;;5055478;28;20191;-91
2021/10/03 03:28:05;;;;;;;29.37;15.53;;;7.80;99.90;;;;;;5055660;28;20278;-91
2021/10/03 03:30:31;;;;;;;31.63;16.53;;;7.70;99.90;;;;;;5073530;28;20179;-94
2021/10/03 03:32:56;;;;;;;28.03;15.17;;;7.70;99.90;;;;;;5073093;28;20266;-94
2021/10/03 03:35:22;;;;;;;28.43;16.70;;;7.70;99.90;;;;;;5073736;28;20673;-95
2021/10/03 03:37:48;;;;;;;30.37;17.27;;;7.70;99.90;;;;;;5058086;28;20218;-95
2021/10/03 03:40:18;;;;;;;33.17;19.00;;;7.80;99.90;;;;;;5074749;28;20183;-95
2021/10/03 03:42:44;;;;;;;29.07;16.27;;;7.80;99.90;;;;;;5078765;28;20183;-94
2021/10/03 03:45:11;;;;;;;33.57;19.17;;;7.80;99.90;;;;;;5097950;28;20203;-94
2021/10/03 03:47:38;;;;;;;30.60;17.70;;;7.90;99.90;;;;;;5080074;28;20163;-90
2021/10/03 03:50:08;;;;;;;28.37;16.70;;;7.90;99.90;;;;;;5076187;28;20187;-93
2021/10/03 03:52:34;;;;;;;39.57;18.30;;;8.00;99.90;;;;;;5072894;28;20229;-93
2021/10/03 03:54:59;;;;;;;30.23;17.60;;;8.00;99.90;;;;;;5074191;28;20187;-93
2021/10/03 03:57:25;;;;;;;29.40;16.50;;;8.00;99.90;;;;;;5056276;28;20804;-93
2021/10/03 03:59:51;;;;;;;39.23;20.53;;;8.10;99.90;;;;;;5078297;28;20175;-93
2021/10/03 04:02:17;;;;;;;36.53;21.27;;;8.10;99.90;;;;;;5074007;28;20570;-93
2021/10/03 04:04:43;;;;;;;40.27;22.00;;;8.10;99.90;;;;;;5076744;28;20183;-92
2021/10/03 04:07:09;;;;;;;42.83;23.07;;;8.10;99.90;;;;;;5078580;28;20205;-93
2021/10/03 04:09:35;;;;;;;34.97;20.00;;;8.10;99.90;;;;;;5077539;28;20636;-94
2021/10/03 04:12:01;;;;;;;32.57;17.80;;;8.10;99.90;;;;;;5085785;28;20179;-95
2021/10/03 04:14:26;;;;;;;31.83;17.53;;;8.20;99.90;;;;;;5093229;28;20191;-93
2021/10/03 04:16:52;;;;;;;40.70;18.67;;;8.20;99.90;;;;;;5073189;28;20306;-91
2021/10/03 04:19:18;;;;;;;49.77;21.80;;;8.20;99.90;;;;;;5081332;28;20190;-91
2021/10/03 04:21:44;;;;;;;52.60;24.63;;;8.20;99.90;;;;;;5080794;28;20187;-92
2021/10/03 04:24:10;;;;;;;47.73;24.93;;;8.20;99.90;;;;;;5046105;28;20203;-94
2021/10/03 04:26:36;;;;;;;33.87;19.07;;;8.20;99.90;;;;;;5078719;28;20661;-93
2021/10/03 04:29:02;;;;;;;33.17;17.37;;;8.10;99.90;;;;;;5085174;28;20171;-94
2021/10/03 04:31:27;;;;;;;33.17;18.93;;;8.10;99.90;;;;;;5084124;28;20190;-94
2021/10/03 04:33:56;;;;;;;34.77;19.33;;;8.10;99.90;;;;;;5081823;28;20207;-94
2021/10/03 04:36:23;;;;;;;43.50;23.33;;;8.10;99.90;;;;;;5070929;28;20238;-89
2021/10/03 04:38:49;;;;;;;46.13;22.00;;;8.10;99.90;;;;;;5081652;28;20628;-92
2021/10/03 04:41:15;;;;;;;46.13;22.10;;;8.10;99.90;;;;;;5082628;28;20196;-94
2021/10/03 04:43:40;;;;;;;38.00;18.77;;;8.10;99.90;;;;;;5080917;28;20255;-94
2021/10/03 04:46:06;;;;;;;40.10;20.20;;;8.10;99.90;;;;;;5062510;28;20192;-92
2021/10/03 04:48:32;;;;;;;48.53;21.80;;;8.10;99.90;;;;;;5065658;28;20211;-93
2021/10/03 04:50:57;;;;;;;56.80;22.70;;;8.10;99.90;;;;;;5068053;28;20188;-92
2021/10/03 04:53:23;;;;;;;42.47;19.20;;;8.10;99.90;;;;;;5069644;28;20187;-94
2021/10/03 04:55:49;;;;;;;68.83;24.67;;;8.10;99.90;;;;;;5069886;28;20184;-95
2021/10/03 04:58:16;;;;;;;71.60;25.73;;;8.20;99.90;;;;;;5069492;28;20206;-94
2021/10/03 05:00:41;;;;;;;61.33;23.67;;;8.20;99.90;;;;;;5067526;28;20246;-94
2021/10/03 05:03:07;;;;;;;42.43;19.93;;;8.20;99.90;;;;;;5069359;28;20243;-92
2021/10/03 05:05:33;;;;;;;38.73;18.60;;;8.20;99.90;;;;;;5066244;28;20186;-94
2021/10/03 05:07:58;;;;;;;42.90;19.47;;;8.20;99.90;;;;;;5069036;28;20203;-92
2021/10/03 05:10:24;;;;;;;35.00;17.60;;;8.30;99.90;;;;;;5069290;28;20258;-93
2021/10/03 05:12:50;;;;;;;57.67;20.93;;;8.30;99.90;;;;;;5050508;28;20184;-93
2021/10/03 05:15:15;;;;;;;42.67;17.93;;;8.40;99.90;;;;;;5029905;28;20212;-92
2021/10/03 05:17:41;;;;;;;49.83;18.70;;;8.40;99.90;;;;;;5047304;28;20277;-93
2021/10/03 05:20:07;;;;;;;44.03;18.23;;;8.50;99.90;;;;;;5005802;28;20671;-95
2021/10/03 05:22:32;;;;;;;45.67;20.07;;;8.50;99.90;;;;;;5016763;28;20199;-93
2021/10/03 05:24:58;;;;;;;31.47;16.53;;;8.50;99.90;;;;;;5028415;28;20193;-91
2021/10/03 05:27:24;;;;;;;44.87;17.63;;;8.50;99.90;;;;;;5025976;28;20194;-92
2021/10/03 05:29:50;;;;;;;42.20;18.43;;;8.60;99.90;;;;;;5033518;28;20271;-92
2021/10/03 05:32:15;;;;;;;33.40;17.77;;;8.70;99.90;;;;;;5053574;28;20270;-92
2021/10/03 05:34:41;;;;;;;30.67;15.40;;;8.70;99.90;;;;;;5053472;28;20176;-92
2021/10/03 05:37:06;;;;;;;32.37;16.03;;;8.80;99.90;;;;;;5019278;28;20257;-92
2021/10/03 05:39:32;;;;;;;31.20;16.43;;;8.80;99.90;;;;;;5031905;28;20564;-95
2021/10/03 05:41:58;;;;;;;33.03;16.87;;;8.90;99.90;;;;;;5001292;28;20522;-92
2021/10/03 05:44:23;;;;;;;27.10;14.87;;;8.90;99.90;;;;;;5028221;28;20239;-91
2021/10/03 05:46:49;;;;;;;28.73;13.03;;;9.00;99.90;;;;;;5024308;28;20188;-90
2021/10/03 05:49:15;;;;;;;26.43;15.13;;;9.10;99.90;;;;;;5018495;28;20215;-92
2021/10/03 05:51:41;;;;;;;24.90;14.23;;;9.10;99.90;;;;;;5002518;28;20180;-92
2021/10/03 05:54:08;;;;;;;21.33;13.57;;;9.20;99.90;;;;;;5020483;28;20242;-91
2021/10/03 05:56:35;;;;;;;34.00;15.37;;;9.30;99.90;;;;;;5026791;28;20215;-91
2021/10/03 05:59:01;;;;;;;25.50;14.73;;;9.40;99.90;;;;;;5023486;28;20192;-93
2021/10/03 06:01:28;;;;;;;28.93;13.63;;;9.40;99.90;;;;;;4994151;28;20195;-94
2021/10/03 06:03:55;;;;;;;25.97;14.30;;;9.50;99.90;;;;;;5024613;28;20277;-93
2021/10/03 06:06:21;;;;;;;26.17;13.57;;;9.60;99.90;;;;;;5025695;28;20227;-94
2021/10/03 06:08:46;;;;;;;21.10;12.60;;;9.70;99.90;;;;;;5022545;28;20180;-94
2021/10/03 06:11:12;;;;;;;29.87;14.20;;;9.70;99.90;;;;;;5027458;28;20203;-93
2021/10/03 06:13:40;;;;;;;24.93;13.80;;;9.80;99.90;;;;;;5007026;28;20184;-94
2021/10/03 06:16:06;;;;;;;54.00;13.57;;;9.90;99.90;;;;;;5040925;28;20228;-93
2021/10/03 06:18:32;;;;;;;23.33;12.70;;;10.00;99.90;;;;;;5041476;28;20199;-89
2021/10/03 06:20:58;;;;;;;23.83;13.37;;;10.00;99.90;;;;;;5024934;28;20215;-93
2021/10/03 06:23:23;;;;;;;26.45;14.82;;;10.10;99.90;;;;;;5013917;28;20411;-93
2021/10/03 06:25:49;;;;;;;24.08;13.00;;;10.30;99.90;;;;;;5036250;28;20236;-93
2021/10/03 06:28:15;;;;;;;22.65;12.30;;;10.40;99.90;;;;;;5010604;28;20176;-91
2021/10/03 06:30:40;;;;;;;25.70;13.27;;;10.50;99.90;;;;;;5027673;28;20219;-93
2021/10/03 06:33:06;;;;;;;22.88;12.02;;;10.60;99.90;;;;;;5040606;28;20177;-93
2021/10/03 06:35:32;;;;;;;26.65;11.88;;;10.70;99.90;;;;;;5024093;28;20191;-94
2021/10/03 06:37:58;;;;;;;20.43;11.57;;;10.90;99.90;;;;;;5023748;28;20295;-93
2021/10/03 06:40:24;;;;;;;23.38;11.38;;;11.00;99.90;;;;;;5043119;28;20684;-94
2021/10/03 06:42:50;;;;;;;21.42;11.27;;;11.10;99.90;;;;;;5043209;28;20176;-93
2021/10/03 06:45:16;;;;;;;34.42;12.90;;;11.20;99.90;;;;;;5051552;28;20179;-92
2021/10/03 06:47:42;;;;;;;25.25;12.02;;;11.30;99.90;;;;;;5050392;28;20190;-93
2021/10/03 06:50:08;;;;;;;30.80;14.07;;;11.40;99.90;;;;;;5027068;28;20193;-90
2021/10/03 06:52:35;;;;;;;34.47;13.13;;;11.60;99.90;;;;;;5027095;28;20697;-86
2021/10/03 06:55:00;;;;;;;24.17;10.93;;;11.70;99.90;;;;;;5003962;28;20180;-91
2021/10/03 06:57:26;;;;;;;23.05;10.55;;;11.80;99.90;;;;;;5020319;28;20273;-94
2021/10/03 06:59:52;;;;;;;25.27;12.10;;;11.90;99.90;;;;;;5019933;28;20181;-94
2021/10/03 07:02:24;;;;;;;18.00;9.75;;;12.00;99.90;;;;;;5020387;28;20596;-93
2021/10/03 07:04:50;;;;;;;34.67;14.68;;;12.10;99.90;;;;;;5031873;28;20208;-91
2021/10/03 07:07:16;;;;;;;22.48;11.20;;;12.20;99.90;;;;;;5042501;28;20200;-94
2021/10/03 07:09:42;;;;;;;19.83;11.50;;;12.30;99.90;;;;;;5040058;28;20179;-91
2021/10/03 07:12:07;;;;;;;16.13;9.32;;;12.50;99.90;;;;;;5018641;28;20206;-93
2021/10/03 07:14:33;;;;;;;16.55;8.90;;;12.60;99.90;;;;;;5013543;28;20181;-92
2021/10/03 07:16:59;;;;;;;20.50;9.73;;;12.70;99.90;;;;;;5021609;28;20259;-93
2021/10/03 07:19:24;;;;;;;17.52;9.25;;;12.80;99.90;;;;;;5052569;28;20176;-91
2021/10/03 07:21:50;;;;;;;15.32;9.38;;;12.90;99.90;;;;;;5050751;28;20640;-91
2021/10/03 07:24:16;;;;;;;19.63;11.70;;;12.90;99.90;;;;;;5038549;28;20171;-91
2021/10/03 07:26:41;;;;;;;17.90;10.45;;;13.00;99.90;;;;;;5080688;28;20214;-89
2021/10/03 07:29:07;;;;;;;23.67;10.30;;;13.10;99.90;;;;;;5068327;28;20192;-91
2021/10/03 07:31:33;;;;;;;19.33;10.60;;;13.20;99.90;;;;;;5049146;28;20172;-89
2021/10/03 07:33:59;;;;;;;17.85;10.52;;;13.30;99.90;;;;;;5050997;28;20687;-91
2021/10/03 07:36:25;;;;;;;20.63;9.80;;;13.40;99.90;;;;;;5051557;28;20239;-92
2021/10/03 07:38:50;;;;;;;17.75;11.23;;;13.40;99.90;;;;;;5055729;28;20267;-89
2021/10/03 07:41:18;;;;;;;17.70;9.07;;;13.50;99.90;;;;;;5040385;28;20187;-90
2021/10/03 07:43:43;;;;;;;14.50;8.95;;;13.60;99.90;;;;;;5055828;28;20266;-89
2021/10/03 07:46:10;;;;;;;14.45;8.80;;;13.70;99.90;;;;;;5056529;28;20271;-91
2021/10/03 07:48:36;;;;;;;18.85;9.75;;;13.80;99.90;;;;;;5056996;28;20172;-92
2021/10/03 07:51:02;;;;;;;18.20;9.45;;;13.90;99.90;;;;;;5056009;28;20200;-92
2021/10/03 07:53:27;;;;;;;15.55;8.80;;;14.00;99.90;;;;;;5039481;28;20663;-92
2021/10/03 07:55:53;;;;;;;14.63;8.82;;;14.10;99.90;;;;;;5039610;28;20195;-92
2021/10/03 07:58:19;;;;;;;14.13;9.02;;;14.20;99.90;;;;;;5056797;28;20186;-92
2021/10/03 08:00:45;;;;;;;12.00;7.75;;;14.20;99.90;;;;;;5074066;28;20187;-96
2021/10/03 08:03:10;;;;;;;14.55;8.77;;;14.30;99.90;;;;;;5075407;28;20195;-87
2021/10/03 08:05:36;;;;;;;15.88;8.60;;;14.40;99.90;;;;;;5075825;28;20202;-96
2021/10/03 08:08:04;;;;;;;17.00;8.23;;;14.50;99.90;;;;;;5059391;28;20184;-93
2021/10/03 08:10:30;;;;;;;12.70;7.75;;;14.60;99.90;;;;;;5077005;28;20174;-91
2021/10/03 08:12:57;;;;;;;16.80;8.05;;;14.70;99.90;;;;;;5075469;28;20179;-91
2021/10/03 08:15:25;;;;;;;13.77;8.23;;;14.70;99.90;;;;;;5073059;28;20179;-92
2021/10/03 08:17:51;;;;;;;12.93;8.13;;;14.80;99.90;;;;;;5061859;28;20263;-92
2021/10/03 08:20:18;;;;;;;18.50;8.38;;;14.90;99.90;;;;;;5011707;28;20664;-91
2021/10/03 08:22:44;;;;;;;12.27;8.43;;;15.00;99.90;;;;;;5007669;28;20612;-91
2021/10/03 08:25:10;;;;;;;13.88;8.18;;;15.10;99.90;;;;;;5056855;28;20210;-91
2021/10/03 08:27:36;;;;;;;13.90;7.95;;;15.10;99.90;;;;;;5042310;28;20697;-92
2021/10/03 08:30:03;;;;;;;14.45;8.82;;;15.20;99.90;;;;;;5040759;28;20176;-92
2021/10/03 08:32:29;;;;;;;14.57;7.22;;;15.30;99.90;;;;;;5041880;28;20181;-88
2021/10/03 08:34:54;;;;;;;13.45;7.53;;;15.40;99.90;;;;;;5004062;28;20192;-90
2021/10/03 08:37:20;;;;;;;12.85;8.20;;;15.40;99.90;;;;;;5022968;28;20285;-92
2021/10/03 08:39:46;;;;;;;15.05;8.40;;;15.40;99.90;;;;;;5023698;28;20195;-92
2021/10/03 08:42:11;;;;;;;15.35;8.32;;;15.40;99.90;;;;;;5021826;28;20270;-91
2021/10/03 08:44:37;;;;;;;13.93;7.93;;;15.50;99.90;;;;;;5005485;28;20184;-94
2021/10/03 08:47:05;;;;;;;14.27;7.40;;;15.60;99.90;;;;;;5019115;28;20195;-88
2021/10/03 08:49:31;;;;;;;15.75;7.38;;;15.60;99.90;;;;;;5001763;28;20192;-93
2021/10/03 08:51:56;;;;;;;15.20;8.13;;;15.70;99.90;;;;;;5004462;28;20732;-90
2021/10/03 08:54:22;;;;;;;11.68;8.40;;;15.70;99.90;;;;;;5002187;28;20184;-91
2021/10/03 08:56:48;;;;;;;13.73;7.78;;;15.90;99.90;;;;;;5021276;28;20555;-92
2021/10/03 08:59:14;;;;;;;11.63;7.60;;;16.00;99.90;;;;;;5020654;28;20181;-90
2021/10/03 09:01:58;;;;;;;14.38;7.55;;;16.10;99.90;;;;;;5003636;28;20612;-91
2021/10/03 09:04:37;;;;;;;12.20;6.97;;;15.80;99.90;;;;;;5037160;28;20598;-90
2021/10/03 09:07:16;;;;;;;13.68;6.95;;;16.20;99.90;;;;;;5037138;28;20676;-91
2021/10/03 09:10:00;;;;;;;11.35;6.80;;;16.20;99.90;;;;;;5019129;28;20652;-91
2021/10/03 09:12:36;;;;;;;11.85;7.20;;;16.20;99.90;;;;;;5055138;28;20184;-92
2021/10/03 09:15:23;;;;;;;14.73;8.15;;;16.30;99.90;;;;;;5054816;28;20233;-93
2021/10/03 09:17:50;;;;;;;15.60;8.55;;;16.40;99.90;;;;;;5025167;28;20274;-91
2021/10/03 09:20:21;;;;;;;13.68;7.40;;;16.60;99.90;;;;;;5052886;28;20180;-90
2021/10/03 09:23:14;;;;;;;16.20;7.95;;;16.80;99.90;;;;;;5047287;28;20172;-92
2021/10/03 09:25:42;;;;;;;13.63;7.30;;;16.90;99.90;;;;;;5033126;28;20191;-92
2021/10/03 09:28:22;;;;;;;15.98;7.05;;;17.10;99.90;;;;;;5036474;28;20184;-92
2021/10/03 09:31:06;;;;;;;19.23;8.38;;;17.10;99.90;;;;;;5025240;28;20184;-91
2021/10/03 09:33:50;;;;;;;12.65;6.78;;;17.10;99.90;;;;;;5017069;28;20172;-89
2021/10/03 09:36:26;;;;;;;14.88;7.43;;;17.20;99.90;;;;;;5026860;28;20673;-90
2021/10/03 09:38:56;;;;;;;13.85;7.53;;;17.40;99.90;;;;;;5040240;28;20179;-90
2021/10/03 09:41:32;;;;;;;14.15;7.22;;;17.50;99.90;;;;;;5047933;28;20224;-90
2021/10/03 09:44:07;;;;;;;12.70;7.43;;;17.60;99.90;;;;;;5034839;28;20188;-89
2021/10/03 09:46:49;;;;;;;10.73;6.22;;;17.70;99.90;;;;;;5034181;28;20238;-90
2021/10/03 09:49:18;;;;;;;10.77;7.25;;;17.70;99.90;;;;;;5056048;28;20187;-89
2021/10/03 09:51:47;;;;;;;12.50;6.63;;;17.90;99.90;;;;;;5037725;28;20283;-90
2021/10/03 09:54:15;;;;;;;15.85;7.55;;;18.00;99.90;;;;;;5046025;28;20188;-90
2021/10/03 09:56:41;;;;;;;13.88;7.85;;;18.00;99.90;;;;;;5034174;28;20204;-89
2021/10/03 09:59:07;;;;;;;13.40;6.75;;;18.00;99.90;;;;;;5050660;28;20259;-90
2021/10/03 10:01:35;;;;;;;10.55;5.90;;;18.10;99.90;;;;;;5032490;28;20204;-92
2021/10/03 10:04:05;;;;;;;8.13;5.35;;;18.20;99.90;;;;;;5053124;28;20649;-89
2021/10/03 10:06:31;;;;;;;8.30;4.97;;;18.30;99.90;;;;;;5037438;28;20189;-92
2021/10/03 10:08:58;;;;;;;7.05;5.20;;;18.50;99.90;;;;;;5041293;28;20199;-91
2021/10/03 10:11:36;;;;;;;10.73;5.45;;;18.50;99.90;;;;;;5042026;28;20652;-92
2021/10/03 10:14:03;;;;;;;16.00;9.48;;;18.50;99.90;;;;;;5015075;28;20293;-90
2021/10/03 10:16:30;;;;;;;11.43;5.07;;;18.80;99.90;;;;;;5026228;28;20284;-92
2021/10/03 10:19:33;;;;;;;7.15;5.50;;;18.90;99.90;;;;;;5080030;28;20171;-91
2021/10/03 10:22:14;;;;;;;7.10;4.85;;;18.90;99.90;;;;;;5074434;28;20174;-90
2021/10/03 10:24:43;;;;;;;10.65;5.95;;;18.80;99.90;;;;;;5072588;28;20183;-91
2021/10/03 10:27:29;;;;;;;10.07;5.50;;;18.90;99.90;;;;;;5063883;28;20199;-94
2021/10/03 10:30:14;;;;;;;8.43;5.22;;;18.90;99.90;;;;;;5054013;28;20198;-90
2021/10/03 10:33:04;;;;;;;13.73;5.38;;;18.90;99.90;;;;;;5055990;28;20607;-89
2021/10/03 10:35:34;;;;;;;11.30;5.60;;;18.80;99.90;;;;;;5065764;28;20181;-89
2021/10/03 10:38:02;;;;;;;10.70;5.18;;;18.80;99.90;;;;;;5070761;28;20253;-91
2021/10/03 10:40:29;;;;;;;6.50;5.00;;;18.90;99.90;;;;;;5062752;28;20183;-90
2021/10/03 10:43:02;;;;;;;11.93;5.10;;;18.90;99.90;;;;;;5054571;28;20178;-88
2021/10/03 10:45:28;;;;;;;8.63;5.20;;;19.00;99.90;;;;;;5068540;28;20179;-89
2021/10/03 10:48:09;;;;;;;9.20;4.90;;;19.00;99.90;;;;;;5056218;28;20259;-89
2021/10/03 10:50:51;;;;;;;11.55;4.68;;;19.00;99.90;;;;;;5057492;28;20183;-89
2021/10/03 10:53:31;;;;;;;12.38;5.32;;;19.00;99.90;;;;;;5052952;28;20176;-91
2021/10/03 10:56:06;;;;;;;10.80;5.63;;;19.00;99.90;;;;;;5050495;28;20219;-90
2021/10/03 10:58:37;;;;;;;8.02;4.93;;;18.90;99.90;;;;;;5057554;28;20198;-92
2021/10/03 11:01:05;;;;;;;7.60;4.80;;;18.90;99.90;;;;;;5069465;28;20190;-90
2021/10/03 11:03:43;;;;;;;13.55;4.80;;;18.90;99.90;;;;;;5080961;28;20175;-89
2021/10/03 11:06:12;;;;;;;6.53;4.45;;;18.80;99.90;;;;;;5054591;28;20180;-91
2021/10/03 11:09:10;;;;;;;10.57;5.15;;;18.80;99.90;;;;;;5057369;28;20182;-90
2021/10/03 11:11:38;;;;;;;10.65;6.00;;;18.70;99.90;;;;;;5066404;28;20176;-89
2021/10/03 11:14:06;;;;;;;10.93;5.82;;;18.40;99.90;;;;;;5067440;28;20224;-91
2021/10/03 11:16:52;;;;;;;11.65;5.55;;;18.90;99.90;;;;;;5057009;28;20282;-92
2021/10/03 11:19:31;;;;;;;10.10;5.90;;;20.60;99.90;;;;;;5022254;28;20172;-93
2021/10/03 11:22:00;;;;;;;17.02;5.75;;;19.00;99.90;;;;;;5029298;28;20211;-94
2021/10/03 11:24:27;;;;;;;10.35;5.57;;;19.00;99.90;;;;;;5020415;28;20665;-94
2021/10/03 11:27:00;;;;;;;12.00;5.70;;;19.00;99.90;;;;;;5017676;28;20727;-92
2021/10/03 11:29:35;;;;;;;15.00;5.22;;;19.00;99.90;;;;;;5039999;28;20176;-89
2021/10/03 11:32:13;;;;;;;10.55;7.60;;;18.90;99.90;;;;;;5019279;28;20705;-91
2021/10/03 11:34:45;;;;;;;8.68;5.43;;;19.00;99.90;;;;;;5016700;28;20225;-91
2021/10/03 11:37:12;;;;;;;10.80;6.20;;;18.90;99.90;;;;;;5036365;28;20303;-90
2021/10/03 11:39:56;;;;;;;11.55;5.57;;;19.00;99.90;;;;;;5022424;28;20720;-89
2021/10/03 11:42:42;;;;;;;12.00;5.07;;;19.00;99.90;;;;;;5019693;28;20204;-91
2021/10/03 11:45:15;;;;;;;6.53;4.95;;;18.90;99.90;;;;;;5031809;28;20181;-91
2021/10/03 11:47:42;;;;;;;7.80;5.35;;;18.90;99.90;;;;;;5019181;28;20195;-91
2021/10/03 11:50:12;;;;;;;14.00;8.70;;;18.90;99.90;;;;;;5019315;28;20216;-90
2021/10/03 11:52:38;;;;;;;10.93;5.03;;;18.90;99.90;;;;;;5033502;28;20188;-92
2021/10/03 11:55:09;;;;;;;10.68;4.90;;;18.80;99.90;;;;;;5020318;28;20199;-90
2021/10/03 11:57:47;;;;;;;8.70;5.25;;;18.70;99.90;;;;;;5030428;28;20210;-91
2021/10/03 12:00:19;;;;;;;9.65;5.20;;;18.70;99.90;;;;;;5046623;28;20207;-91
2021/10/03 12:02:47;;;;;;;10.18;4.75;;;18.80;99.90;;;;;;5027976;28;20183;-94
2021/10/03 12:05:25;;;;;;;9.30;5.10;;;18.90;99.90;;;;;;5039162;28;20175;-90
2021/10/03 12:08:11;;;;;;;13.05;5.30;;;18.80;99.90;;;;;;5032074;28;20219;-91
2021/10/03 12:10:49;;;;;;;11.15;5.55;;;18.80;99.90;;;;;;5027504;28;20287;-93
2021/10/03 12:13:28;;;;;;;13.18;5.15;;;18.90;99.90;;;;;;5050688;28;20194;-94
2021/10/03 12:16:01;;;;;;;6.47;4.55;;;19.00;99.90;;;;;;5026971;28;20265;-92
2021/10/03 12:18:30;;;;;;;8.88;5.00;;;19.10;99.90;;;;;;5053118;28;20669;-91
2021/10/03 12:21:07;;;;;;;7.07;5.10;;;19.20;99.90;;;;;;5056735;28;20237;-92
2021/10/03 12:23:42;;;;;;;9.07;5.10;;;19.20;99.90;;;;;;5053698;28;20172;-92
2021/10/03 12:26:13;;;;;;;9.63;4.72;;;19.10;99.90;;;;;;5065030;28;20195;-94
2021/10/03 12:29:06;;;;;;;8.27;4.47;;;19.00;99.90;;;;;;5054370;28;20180;-92
2021/10/03 12:32:08;;;;;;;6.78;4.53;;;19.10;99.90;;;;;;5053377;28;20172;-93
2021/10/03 12:34:36;;;;;;;8.55;5.32;;;19.00;99.90;;;;;;5057288;28;20191;-90
2021/10/03 12:37:17;;;;;;;10.98;4.25;;;19.20;99.90;;;;;;5056759;28;20219;-91
2021/10/03 12:39:45;;;;;;;9.35;4.38;;;19.20;99.90;;;;;;5056088;28;20179;-92
2021/10/03 12:42:18;;;;;;;9.90;4.50;;;19.50;99.90;;;;;;5053433;28;20179;-92